Time;durP1;ratioP1;P1;durP2;ratioP2;P2;SDS_P1;SDS_P2;PMS_P1;PMS_P2;Temp;Humidity;BMP_temperature;BMP_pressure;BME280_temperature;BME280_humidity;BME280_pressure;Samples;Min_cycle;Max_cycle;Signal;HPM_P1;HPM_P2
2023/09/22 00:00:37;;;;;;;16.92;10.77;;;13.80;96.50;;;;;;5038034;28;20021;-74
2023/09/22 00:03:05;;;;;;;15.57;10.57;;;13.80;96.50;;;;;;5038546;28;20381;-75
2023/09/22 00:05:30;;;;;;;16.98;9.48;;;13.80;96.50;;;;;;5034694;28;20124;-74
2023/09/22 00:07:56;;;;;;;15.98;9.23;;;13.80;96.40;;;;;;5039310;28;20467;-72
2023/09/22 00:10:22;;;;;;;17.23;9.70;;;13.90;96.40;;;;;;5037443;28;20025;-74
2023/09/22 00:12:48;;;;;;;14.95;8.65;;;13.80;96.40;;;;;;5035123;28;20045;-75
2023/09/22 00:15:14;;;;;;;14.30;8.75;;;13.80;96.30;;;;;;5034890;28;20253;-74
2023/09/22 00:17:40;;;;;;;16.05;8.07;;;13.90;96.30;;;;;;5036957;28;20049;-75
2023/09/22 00:20:14;;;;;;;16.45;8.02;;;13.90;96.30;;;;;;5037079;28;20030;-75
2023/09/22 00:22:40;;;;;;;15.45;7.93;;;13.90;96.30;;;;;;5037111;28;20047;-75
2023/09/22 00:25:06;;;;;;;13.43;7.47;;;13.90;96.20;;;;;;5036673;28;20021;-74
2023/09/22 00:27:32;;;;;;;13.77;7.05;;;13.90;96.20;;;;;;5037205;28;20025;-75
2023/09/22 00:29:57;;;;;;;14.15;7.65;;;13.80;96.20;;;;;;5041278;28;20074;-76
2023/09/22 00:32:23;;;;;;;12.63;6.90;;;13.90;96.20;;;;;;5029825;28;20533;-74
2023/09/22 00:34:49;;;;;;;12.68;6.72;;;13.90;96.20;;;;;;5035620;28;20031;-74
2023/09/22 00:37:14;;;;;;;13.73;6.90;;;13.90;96.10;;;;;;5029781;28;20034;-74
2023/09/22 00:39:40;;;;;;;10.73;6.10;;;13.90;96.10;;;;;;5032648;28;20039;-74
2023/09/22 00:42:09;;;;;;;14.15;7.45;;;13.90;96.10;;;;;;5041474;28;20033;-74
2023/09/22 00:44:35;;;;;;;14.65;5.88;;;14.00;96.00;;;;;;5035496;28;20025;-74
2023/09/22 00:47:02;;;;;;;9.93;5.40;;;14.00;96.00;;;;;;5038607;28;20032;-74
2023/09/22 00:49:30;;;;;;;13.25;5.82;;;14.00;95.90;;;;;;5035585;28;20017;-74
2023/09/22 00:51:56;;;;;;;10.95;5.78;;;14.00;95.90;;;;;;5040510;28;20128;-74
2023/09/22 00:54:23;;;;;;;14.55;6.13;;;14.00;96.00;;;;;;5035048;28;20466;-74
2023/09/22 00:56:49;;;;;;;12.30;6.18;;;14.00;95.90;;;;;;5037917;28;20037;-74
2023/09/22 00:59:15;;;;;;;12.27;6.97;;;14.00;95.80;;;;;;5037631;28;20025;-74
2023/09/22 01:01:45;;;;;;;13.00;6.43;;;14.00;95.80;;;;;;5037262;28;20029;-73
2023/09/22 01:04:11;;;;;;;11.55;5.82;;;14.00;95.90;;;;;;5034209;28;20121;-74
2023/09/22 01:06:38;;;;;;;16.48;6.35;;;14.00;95.80;;;;;;5032701;28;20040;-74
2023/09/22 01:09:05;;;;;;;12.05;6.25;;;14.00;95.90;;;;;;5028670;28;20033;-73
2023/09/22 01:11:34;;;;;;;12.35;6.47;;;14.00;95.90;;;;;;5030271;28;20377;-74
2023/09/22 01:14:00;;;;;;;13.13;6.38;;;13.90;95.90;;;;;;5034206;28;20506;-74
2023/09/22 01:16:26;;;;;;;14.40;6.30;;;13.90;96.00;;;;;;5031378;28;20017;-74
2023/09/22 01:18:52;;;;;;;14.02;6.43;;;13.90;96.00;;;;;;5040437;28;20037;-74
2023/09/22 01:21:18;;;;;;;13.50;6.72;;;13.90;96.10;;;;;;5036908;28;20024;-74
2023/09/22 01:23:44;;;;;;;14.10;6.65;;;13.80;96.10;;;;;;5033733;28;20477;-74
2023/09/22 01:26:09;;;;;;;13.68;6.38;;;13.80;96.10;;;;;;5037382;28;20319;-74
2023/09/22 01:28:35;;;;;;;13.35;7.18;;;13.80;96.10;;;;;;5035548;28;20403;-74
2023/09/22 01:31:01;;;;;;;13.80;7.13;;;13.70;96.10;;;;;;5036657;28;20444;-74
2023/09/22 01:33:27;;;;;;;16.92;6.93;;;13.80;96.20;;;;;;5035991;28;20045;-74
2023/09/22 01:35:53;;;;;;;15.15;6.55;;;13.70;96.20;;;;;;5039876;28;20363;-73
2023/09/22 01:38:23;;;;;;;14.20;6.60;;;13.70;96.20;;;;;;5031109;28;20090;-73
2023/09/22 01:40:50;;;;;;;12.40;6.43;;;13.70;96.20;;;;;;5034866;28;20044;-73
2023/09/22 01:43:19;;;;;;;12.40;6.97;;;13.70;96.20;;;;;;5034055;28;20060;-73
2023/09/22 01:45:44;;;;;;;13.73;6.50;;;13.60;96.30;;;;;;5031718;28;20051;-74
2023/09/22 01:48:11;;;;;;;11.43;6.28;;;13.70;96.40;;;;;;5037186;28;20490;-73
2023/09/22 01:50:37;;;;;;;12.57;6.80;;;13.60;96.40;;;;;;5039917;28;20026;-73
2023/09/22 01:53:05;;;;;;;14.88;6.45;;;13.60;96.40;;;;;;5032343;28;20048;-73
2023/09/22 01:55:31;;;;;;;13.25;6.18;;;13.60;96.50;;;;;;5031185;28;20029;-73
2023/09/22 01:57:58;;;;;;;14.27;5.97;;;13.50;96.50;;;;;;5031794;28;20079;-74
2023/09/22 02:00:24;;;;;;;14.32;5.90;;;13.50;96.50;;;;;;5030395;28;20029;-75
2023/09/22 02:02:50;;;;;;;12.75;5.60;;;13.50;96.50;;;;;;5035838;28;20501;-74
2023/09/22 02:05:16;;;;;;;13.32;5.43;;;13.50;96.60;;;;;;5037226;28;20029;-74
2023/09/22 02:07:44;;;;;;;11.30;5.90;;;13.40;96.60;;;;;;5028081;28;20238;-74
2023/09/22 02:10:12;;;;;;;11.20;5.10;;;13.50;96.60;;;;;;5037692;28;20020;-74
2023/09/22 02:12:38;;;;;;;11.95;5.85;;;13.40;96.60;;;;;;5027934;28;20035;-74
2023/09/22 02:15:07;;;;;;;13.77;5.88;;;13.40;96.60;;;;;;5040166;28;20029;-74
2023/09/22 02:17:33;;;;;;;10.27;5.38;;;13.40;96.60;;;;;;5028271;28;20557;-73
2023/09/22 02:19:58;;;;;;;9.73;4.55;;;13.40;96.60;;;;;;5038019;28;20033;-74
2023/09/22 02:22:24;;;;;;;13.50;5.38;;;13.40;96.60;;;;;;5036155;28;20094;-74
2023/09/22 02:24:50;;;;;;;9.73;4.60;;;13.50;96.60;;;;;;5025890;28;20033;-74
2023/09/22 02:27:15;;;;;;;11.02;5.32;;;13.40;96.60;;;;;;5036564;28;20033;-74
2023/09/22 02:29:42;;;;;;;11.45;5.55;;;13.40;96.50;;;;;;5030595;28;20025;-74
2023/09/22 02:32:07;;;;;;;13.98;5.50;;;13.40;96.60;;;;;;5035794;28;20380;-74
2023/09/22 02:34:33;;;;;;;12.75;5.10;;;13.40;96.60;;;;;;5036515;28;20182;-74
2023/09/22 02:36:59;;;;;;;9.15;4.53;;;13.40;96.50;;;;;;5029567;28;20047;-73
2023/09/22 02:39:25;;;;;;;11.18;4.60;;;13.40;96.50;;;;;;5034666;28;20462;-74
2023/09/22 02:41:51;;;;;;;14.50;4.80;;;13.40;96.60;;;;;;5037581;28;20462;-74
2023/09/22 02:44:16;;;;;;;8.98;4.53;;;13.40;96.50;;;;;;5033552;28;20466;-74
2023/09/22 02:46:42;;;;;;;9.63;4.25;;;13.40;96.40;;;;;;5037171;28;20073;-73
2023/09/22 02:49:08;;;;;;;14.02;4.80;;;13.30;96.20;;;;;;5032221;28;20124;-74
2023/09/22 02:51:34;;;;;;;11.65;4.25;;;13.30;96.20;;;;;;5031962;28;20017;-74
2023/09/22 02:54:00;;;;;;;10.45;4.00;;;13.30;96.20;;;;;;5033128;28;20052;-74
2023/09/22 02:56:27;;;;;;;9.73;3.80;;;13.30;96.00;;;;;;5040558;28;20108;-72
2023/09/22 02:58:53;;;;;;;7.97;3.60;;;13.20;96.00;;;;;;5030460;28;20179;-74
2023/09/22 03:01:19;;;;;;;8.90;3.70;;;13.20;96.00;;;;;;5033639;28;20422;-74
2023/09/22 03:03:45;;;;;;;10.23;3.72;;;13.10;96.10;;;;;;5032892;28;20043;-74
2023/09/22 03:06:11;;;;;;;8.50;3.70;;;13.10;96.00;;;;;;5035120;28;20029;-74
2023/09/22 03:08:38;;;;;;;12.73;4.55;;;13.10;96.00;;;;;;5029412;28;20029;-74
2023/09/22 03:11:04;;;;;;;8.50;3.50;;;13.10;96.00;;;;;;5037289;28;20131;-73
2023/09/22 03:13:30;;;;;;;8.07;3.50;;;13.10;96.00;;;;;;5026506;28;20116;-74
2023/09/22 03:15:57;;;;;;;6.95;3.20;;;13.00;96.00;;;;;;5031117;28;20039;-74
2023/09/22 03:18:23;;;;;;;9.43;3.63;;;13.00;96.00;;;;;;5031978;28;20982;-73
2023/09/22 03:20:49;;;;;;;7.03;3.53;;;13.00;95.90;;;;;;5042593;28;20102;-73
2023/09/22 03:23:16;;;;;;;9.52;3.50;;;13.00;95.90;;;;;;5033666;28;20573;-75
2023/09/22 03:25:45;;;;;;;10.63;4.00;;;12.90;95.90;;;;;;5037068;28;20029;-74
2023/09/22 03:28:11;;;;;;;7.85;3.30;;;12.90;95.80;;;;;;5031680;28;20128;-73
2023/09/22 03:30:37;;;;;;;8.05;3.25;;;12.90;95.90;;;;;;5038651;28;20436;-74
2023/09/22 03:33:03;;;;;;;8.25;3.30;;;12.90;95.80;;;;;;5037369;28;20029;-74
2023/09/22 03:35:29;;;;;;;6.85;3.05;;;12.80;95.80;;;;;;5035207;28;20277;-73
2023/09/22 03:37:56;;;;;;;5.63;3.10;;;12.80;95.80;;;;;;5034437;28;20485;-73
2023/09/22 03:40:42;;;;;;;7.55;2.90;;;12.80;95.80;;;;;;5040974;28;20021;-73
2023/09/22 03:43:08;;;;;;;7.35;3.13;;;12.70;95.70;;;;;;5033754;28;20145;-73
2023/09/22 03:45:34;;;;;;;8.02;3.70;;;12.70;95.80;;;;;;5030583;28;20029;-73
2023/09/22 03:48:01;;;;;;;8.55;3.28;;;12.70;95.80;;;;;;5032895;28;20033;-73
2023/09/22 03:50:26;;;;;;;7.53;3.05;;;12.70;95.70;;;;;;5038013;28;20044;-73
2023/09/22 03:52:52;;;;;;;7.35;3.28;;;12.60;95.70;;;;;;5036779;28;20771;-74
2023/09/22 03:55:19;;;;;;;7.43;3.13;;;12.60;95.70;;;;;;5039014;28;20094;-73
2023/09/22 03:57:45;;;;;;;7.63;3.20;;;12.60;95.60;;;;;;5030290;28;20261;-75
2023/09/22 04:00:17;;;;;;;4.75;2.70;;;12.60;95.60;;;;;;5040947;28;20025;-74
2023/09/22 04:02:44;;;;;;;5.57;2.80;;;12.50;95.70;;;;;;5033202;28;20064;-74
2023/09/22 04:05:11;;;;;;;6.40;2.92;;;12.50;95.80;;;;;;5035355;28;20053;-75
2023/09/22 04:07:37;;;;;;;7.28;3.05;;;12.50;95.80;;;;;;5036995;28;20025;-74
2023/09/22 04:10:03;;;;;;;8.68;3.13;;;12.50;95.80;;;;;;5038757;28;20120;-75
2023/09/22 04:12:30;;;;;;;8.18;3.30;;;12.50;95.70;;;;;;5040363;28;20025;-74
2023/09/22 04:14:56;;;;;;;7.20;2.92;;;12.50;95.70;;;;;;5035755;28;20393;-74
2023/09/22 04:17:22;;;;;;;9.30;3.15;;;12.50;95.80;;;;;;5033247;28;20407;-75
2023/09/22 04:19:50;;;;;;;7.40;3.17;;;12.40;95.70;;;;;;5041822;28;20816;-75
2023/09/22 04:22:17;;;;;;;7.07;3.13;;;12.40;95.80;;;;;;5038249;28;20400;-74
2023/09/22 04:24:47;;;;;;;8.13;3.05;;;12.40;95.80;;;;;;5035346;28;20435;-74
2023/09/22 04:27:14;;;;;;;7.75;3.05;;;12.40;95.80;;;;;;5036327;28;20033;-74
2023/09/22 04:29:40;;;;;;;8.00;3.38;;;12.30;95.80;;;;;;5036860;28;20026;-74
2023/09/22 04:32:06;;;;;;;6.32;2.95;;;12.30;95.90;;;;;;5037332;28;20045;-74
2023/09/22 04:34:32;;;;;;;7.05;3.05;;;12.30;95.90;;;;;;5035974;28;20103;-75
2023/09/22 04:36:58;;;;;;;7.78;3.05;;;12.30;95.90;;;;;;5035839;28;20780;-75
2023/09/22 04:39:24;;;;;;;8.77;2.95;;;12.20;95.90;;;;;;5026671;28;20464;-74
2023/09/22 04:41:50;;;;;;;6.60;2.90;;;12.20;95.90;;;;;;5032424;28;20474;-75
2023/09/22 04:44:16;;;;;;;6.90;2.90;;;12.20;95.80;;;;;;5035620;28;20036;-74
2023/09/22 04:46:42;;;;;;;7.68;3.05;;;12.10;95.90;;;;;;5047643;28;20455;-74
2023/09/22 04:49:10;;;;;;;6.63;3.13;;;12.20;95.80;;;;;;5046891;28;20082;-75
2023/09/22 04:51:36;;;;;;;5.07;2.80;;;12.20;95.90;;;;;;5043542;28;20386;-74
2023/09/22 04:54:02;;;;;;;7.78;3.13;;;12.10;95.80;;;;;;5033947;28;20041;-73
2023/09/22 04:56:28;;;;;;;5.60;3.10;;;12.10;95.80;;;;;;5029634;28;20037;-75
2023/09/22 04:58:56;;;;;;;6.32;3.05;;;12.10;95.90;;;;;;5032811;28;20080;-74
2023/09/22 05:01:24;;;;;;;6.90;2.78;;;12.10;95.90;;;;;;5033497;28;20021;-75
2023/09/22 05:03:50;;;;;;;6.80;2.85;;;12.00;95.90;;;;;;5038556;28;20040;-74
2023/09/22 05:06:16;;;;;;;8.63;2.85;;;12.10;95.80;;;;;;5036364;28;20033;-76
2023/09/22 05:08:42;;;;;;;6.65;2.80;;;12.00;95.80;;;;;;5033936;28;20689;-74
2023/09/22 05:11:08;;;;;;;8.02;3.15;;;11.90;95.90;;;;;;5031387;28;20572;-73
2023/09/22 05:13:35;;;;;;;5.43;2.55;;;11.90;95.80;;;;;;5034238;28;20048;-75
2023/09/22 05:16:06;;;;;;;7.13;2.97;;;12.00;95.70;;;;;;5032154;28;20470;-74
2023/09/22 05:18:31;;;;;;;9.43;2.45;;;11.90;95.60;;;;;;5037355;28;20029;-74
2023/09/22 05:21:00;;;;;;;6.82;2.50;;;11.90;95.40;;;;;;5034371;28;20021;-74
2023/09/22 05:23:27;;;;;;;5.50;2.40;;;11.80;95.40;;;;;;5034624;28;20474;-80
2023/09/22 05:25:53;;;;;;;5.60;2.55;;;11.80;95.50;;;;;;5033012;28;20017;-76
2023/09/22 05:28:18;;;;;;;4.68;2.50;;;11.80;95.50;;;;;;5037906;28;20035;-73
2023/09/22 05:30:45;;;;;;;4.97;2.30;;;11.80;95.30;;;;;;5032555;28;20049;-74
2023/09/22 05:33:11;;;;;;;5.47;2.63;;;11.80;95.30;;;;;;5031575;28;20039;-74
2023/09/22 05:35:37;;;;;;;5.18;2.22;;;11.70;95.20;;;;;;5023304;28;20472;-73
2023/09/22 05:38:06;;;;;;;6.93;2.30;;;11.70;95.20;;;;;;5028055;28;20086;-74
2023/09/22 05:40:35;;;;;;;5.47;2.42;;;11.80;95.20;;;;;;5034589;28;20057;-74
2023/09/22 05:43:05;;;;;;;5.35;2.40;;;11.80;95.10;;;;;;5035064;28;20087;-73
2023/09/22 05:45:31;;;;;;;5.47;2.75;;;11.90;95.10;;;;;;5036479;28;20036;-75
2023/09/22 05:47:57;;;;;;;6.20;2.50;;;11.90;95.00;;;;;;5034756;28;20040;-75
2023/09/22 05:50:25;;;;;;;5.18;2.42;;;12.00;94.90;;;;;;5039750;28;20044;-73
2023/09/22 05:52:51;;;;;;;5.43;2.80;;;12.10;94.80;;;;;;5033196;28;20116;-73
2023/09/22 05:55:21;;;;;;;7.18;2.95;;;12.10;94.70;;;;;;5036604;28;20823;-73
2023/09/22 05:57:47;;;;;;;5.95;2.20;;;12.10;94.60;;;;;;5025811;28;20050;-75
2023/09/22 06:00:16;;;;;;;4.75;2.60;;;12.10;94.40;;;;;;5033055;28;20386;-75
2023/09/22 06:02:51;;;;;;;6.55;2.70;;;12.20;94.30;;;;;;5028562;28;20134;-75
2023/09/22 06:05:18;;;;;;;6.70;2.70;;;12.20;94.20;;;;;;5030438;28;20301;-75
2023/09/22 06:07:44;;;;;;;5.03;1.90;;;12.20;94.00;;;;;;5027931;28;20493;-75
2023/09/22 06:10:10;;;;;;;4.35;1.83;;;12.30;93.90;;;;;;5027764;28;20021;-73
2023/09/22 06:12:39;;;;;;;5.85;2.30;;;12.30;93.80;;;;;;5032181;28;20044;-75
2023/09/22 06:15:07;;;;;;;3.08;1.80;;;12.30;93.50;;;;;;5039284;28;20029;-75
2023/09/22 06:17:36;;;;;;;4.85;2.10;;;12.30;93.50;;;;;;5036431;28;20116;-76
2023/09/22 06:20:15;;;;;;;4.63;2.05;;;12.30;93.40;;;;;;5027630;28;20027;-76
2023/09/22 06:22:47;;;;;;;3.58;1.80;;;12.30;93.30;;;;;;5031656;28;20036;-74
2023/09/22 06:25:16;;;;;;;5.85;1.73;;;12.40;93.20;;;;;;5035712;28;20512;-75
2023/09/22 06:27:45;;;;;;;2.05;1.42;;;12.50;93.00;;;;;;5026565;28;20025;-75
2023/09/22 06:30:11;;;;;;;3.78;1.70;;;12.80;92.70;;;;;;5032025;28;20032;-75
2023/09/22 06:32:41;;;;;;;4.05;1.55;;;13.50;91.50;;;;;;5034245;28;20025;-75
2023/09/22 06:35:09;;;;;;;2.90;1.58;;;14.10;88.80;;;;;;5036630;28;20100;-75
2023/09/22 06:37:36;;;;;;;2.20;1.30;;;14.80;86.60;;;;;;5026821;28;20057;-76
2023/09/22 06:40:09;;;;;;;5.25;1.73;;;15.10;84.80;;;;;;5036048;28;20099;-75
2023/09/22 06:42:35;;;;;;;3.50;1.30;;;15.00;84.00;;;;;;5031130;28;20040;-75
2023/09/22 06:45:01;;;;;;;3.78;1.73;;;15.00;84.50;;;;;;5031562;28;20032;-75
2023/09/22 06:47:27;;;;;;;5.25;1.98;;;14.60;84.60;;;;;;5026487;28;20061;-73
2023/09/22 06:49:52;;;;;;;3.13;1.60;;;14.30;85.80;;;;;;5034866;28;20091;-74
2023/09/22 07:20:44;;;;;;;5.90;2.28;;;13.40;91.30;;;;;;5045708;28;20523;-69
2023/09/22 07:23:10;;;;;;;3.67;1.80;;;14.10;89.00;;;;;;5037650;28;20049;-69
2023/09/22 07:25:36;;;;;;;5.00;1.95;;;14.30;89.10;;;;;;5025303;28;20033;-70
2023/09/22 07:28:01;;;;;;;4.78;1.80;;;14.40;88.90;;;;;;5029466;28;20029;-73
2023/09/22 07:30:29;;;;;;;7.15;2.10;;;14.30;88.40;;;;;;5017125;28;20033;-70
2023/09/22 07:32:55;;;;;;;7.28;2.30;;;14.30;88.20;;;;;;5000479;28;20030;-69
2023/09/22 07:35:21;;;;;;;6.40;2.13;;;14.40;87.70;;;;;;5000501;28;20045;-73
2023/09/22 07:37:47;;;;;;;4.82;2.20;;;14.30;88.00;;;;;;5005414;28;20132;-73
2023/09/22 07:40:13;;;;;;;6.57;1.92;;;14.40;88.00;;;;;;5005510;28;20750;-72
2023/09/22 07:42:41;;;;;;;4.25;2.00;;;14.60;88.00;;;;;;5007836;28;20029;-71
2023/09/22 07:45:08;;;;;;;5.30;2.10;;;14.60;88.00;;;;;;5000650;28;20069;-73
2023/09/22 07:47:34;;;;;;;6.32;3.55;;;14.70;87.70;;;;;;5005610;28;20022;-71
2023/09/22 07:50:00;;;;;;;6.97;2.80;;;14.80;87.70;;;;;;5003121;28;20037;-71
2023/09/22 07:52:26;;;;;;;5.40;2.63;;;14.80;87.50;;;;;;5026315;28;20044;-72
2023/09/22 07:54:53;;;;;;;6.40;2.50;;;14.90;87.20;;;;;;5024835;28;20026;-70
2023/09/22 07:57:19;;;;;;;5.47;2.28;;;15.00;86.90;;;;;;5023512;28;20456;-75
2023/09/22 07:59:45;;;;;;;3.92;2.35;;;15.20;86.70;;;;;;5028330;28;20044;-74
2023/09/22 08:02:10;;;;;;;5.20;2.40;;;15.30;86.30;;;;;;5031132;28;20025;-70
2023/09/22 08:04:36;;;;;;;4.47;2.25;;;15.20;85.70;;;;;;5027827;28;20037;-73
2023/09/22 08:07:03;;;;;;;5.60;2.30;;;15.20;86.10;;;;;;5011152;28;20014;-70
2023/09/22 08:09:28;;;;;;;7.55;2.92;;;15.20;86.00;;;;;;5005945;28;20091;-72
2023/09/22 08:11:57;;;;;;;4.93;2.75;;;15.20;85.80;;;;;;5006356;28;20025;-73
2023/09/22 08:14:25;;;;;;;7.28;2.92;;;15.30;85.40;;;;;;5001252;28;20022;-71
2023/09/22 08:16:51;;;;;;;7.88;3.00;;;15.30;85.80;;;;;;5022734;28;20066;-71
2023/09/22 08:19:18;;;;;;;7.28;3.42;;;15.50;86.20;;;;;;5009355;28;20136;-73
2023/09/22 08:21:46;;;;;;;6.50;3.58;;;15.70;84.70;;;;;;5007299;28;20121;-72
2023/09/22 08:24:14;;;;;;;6.80;3.58;;;15.60;84.10;;;;;;5005629;28;20032;-74
2023/09/22 08:26:42;;;;;;;8.63;3.80;;;15.60;84.50;;;;;;4994532;28;20030;-74
2023/09/22 08:29:09;;;;;;;11.60;6.10;;;15.60;84.50;;;;;;5004616;28;20121;-70
2023/09/22 08:31:36;;;;;;;8.00;4.32;;;15.80;84.60;;;;;;5010013;28;20041;-72
2023/09/22 08:34:03;;;;;;;9.60;5.85;;;16.00;84.00;;;;;;5007739;28;20029;-73
2023/09/22 08:36:28;;;;;;;8.50;5.50;;;15.90;83.20;;;;;;4994457;28;20033;-73
2023/09/22 08:38:55;;;;;;;8.48;4.95;;;15.90;83.60;;;;;;4996427;28;20698;-70
2023/09/22 08:41:23;;;;;;;5.82;4.15;;;16.10;83.70;;;;;;4993604;28;20208;-72
2023/09/22 08:43:49;;;;;;;9.68;3.90;;;16.30;83.30;;;;;;5006070;28;20022;-75
2023/09/22 08:46:16;;;;;;;6.30;3.45;;;16.60;82.80;;;;;;4992919;28;20042;-70
2023/09/22 08:48:42;;;;;;;7.20;3.35;;;16.80;82.70;;;;;;4987867;28;20026;-74
2023/09/22 08:51:09;;;;;;;5.95;3.00;;;16.70;82.10;;;;;;4995203;28;20777;-72
2023/09/22 08:53:36;;;;;;;8.93;3.53;;;16.60;81.70;;;;;;4990134;28;20088;-68
2023/09/22 08:56:04;;;;;;;8.32;2.90;;;16.70;81.70;;;;;;4986539;28;20038;-74
2023/09/22 08:58:30;;;;;;;7.88;2.60;;;16.70;81.40;;;;;;4990638;28;20025;-74
2023/09/22 09:00:56;;;;;;;6.72;2.95;;;16.80;81.20;;;;;;4983706;28;20048;-75
2023/09/22 09:03:21;;;;;;;5.18;2.40;;;17.00;81.10;;;;;;4993071;28;20114;-73
2023/09/22 09:05:49;;;;;;;5.75;2.45;;;16.90;80.40;;;;;;5004770;28;20065;-73
2023/09/22 09:08:22;;;;;;;5.25;2.63;;;16.90;80.60;;;;;;5012123;28;20022;-72
2023/09/22 09:10:49;;;;;;;4.35;2.40;;;16.80;80.30;;;;;;5014186;28;20068;-74
2023/09/22 09:13:23;;;;;;;4.35;2.00;;;16.80;81.20;;;;;;5012478;28;20099;-70
2023/09/22 09:15:54;;;;;;;3.80;2.30;;;16.70;80.80;;;;;;5004253;28;20033;-71
2023/09/22 09:18:21;;;;;;;5.22;2.42;;;16.70;80.70;;;;;;5011795;28;20025;-70
2023/09/22 09:20:49;;;;;;;8.32;2.70;;;16.60;80.80;;;;;;5002447;28;20030;-71
2023/09/22 09:23:19;;;;;;;6.22;2.10;;;16.70;80.60;;;;;;4991482;28;20113;-70
2023/09/22 09:25:50;;;;;;;5.75;2.00;;;16.80;80.60;;;;;;4986605;28;20256;-73
2023/09/22 09:28:17;;;;;;;4.55;1.90;;;17.00;81.10;;;;;;4989731;28;20037;-75
2023/09/22 09:30:57;;;;;;;5.50;2.28;;;16.80;80.30;;;;;;4996141;28;20042;-71
2023/09/22 09:33:33;;;;;;;7.30;2.40;;;16.90;80.50;;;;;;4987040;28;20045;-73
2023/09/22 09:36:00;;;;;;;7.68;3.28;;;16.80;81.00;;;;;;4987285;28;20139;-70
2023/09/22 09:38:28;;;;;;;5.88;2.30;;;16.60;80.70;;;;;;4989965;28;20636;-73
2023/09/22 09:40:56;;;;;;;7.28;2.55;;;16.50;81.60;;;;;;4991809;28;20057;-69
2023/09/22 09:43:21;;;;;;;4.75;2.00;;;16.50;81.80;;;;;;4990391;28;20401;-72
2023/09/22 09:45:57;;;;;;;4.75;2.10;;;16.40;81.50;;;;;;4990289;28;20056;-71
2023/09/22 09:48:26;;;;;;;8.60;2.47;;;16.40;81.30;;;;;;4991495;28;20029;-73
2023/09/22 09:50:57;;;;;;;5.40;2.20;;;16.40;81.30;;;;;;4990263;28;20023;-70
2023/09/22 09:53:31;;;;;;;4.85;2.13;;;16.50;81.90;;;;;;4986927;28;20034;-74
2023/09/22 09:56:02;;;;;;;7.07;2.60;;;16.50;81.50;;;;;;4990930;28;20606;-74
2023/09/22 09:58:31;;;;;;;5.45;2.50;;;16.40;81.40;;;;;;4988624;28;20115;-70
2023/09/22 10:00:58;;;;;;;5.75;2.00;;;16.30;81.60;;;;;;4986015;28;20066;-72
2023/09/22 10:03:27;;;;;;;5.20;2.22;;;16.40;81.70;;;;;;4983803;28;20070;-74
2023/09/22 10:05:55;;;;;;;6.60;2.33;;;16.50;81.20;;;;;;4990073;28;20037;-73
2023/09/22 10:08:24;;;;;;;6.75;2.60;;;16.40;81.10;;;;;;4995105;28;20014;-69
2023/09/22 10:10:52;;;;;;;5.68;2.58;;;16.50;81.80;;;;;;4989186;28;20026;-73
2023/09/22 10:13:18;;;;;;;6.45;2.70;;;16.50;81.30;;;;;;4990550;28;20049;-69
2023/09/22 10:15:54;;;;;;;4.72;2.50;;;16.50;80.60;;;;;;4990747;28;20060;-70
2023/09/22 10:18:21;;;;;;;7.60;2.95;;;16.50;80.90;;;;;;4990995;28;20034;-69
2023/09/22 10:20:48;;;;;;;5.80;2.60;;;16.60;81.50;;;;;;4988429;28;20149;-73
2023/09/22 10:23:19;;;;;;;9.30;3.08;;;16.60;80.90;;;;;;4994818;28;20022;-70
2023/09/22 10:26:19;;;;;;;6.47;2.58;;;16.50;81.60;;;;;;4988206;28;20118;-72
2023/09/22 10:28:45;;;;;;;6.68;2.95;;;16.40;82.00;;;;;;4978904;28;20706;-71
2023/09/22 10:31:11;;;;;;;11.40;3.20;;;16.30;81.70;;;;;;4978482;28;20134;-73
2023/09/22 10:33:37;;;;;;;6.50;2.88;;;16.40;81.80;;;;;;4980762;28;20105;-72
2023/09/22 10:36:08;;;;;;;8.27;3.05;;;16.40;82.20;;;;;;4982248;28;20033;-70
2023/09/22 10:38:53;;;;;;;6.93;3.08;;;16.40;82.20;;;;;;4980537;28;20038;-74
2023/09/22 10:41:19;;;;;;;6.75;2.80;;;16.50;82.60;;;;;;4981464;28;20038;-70
2023/09/22 10:43:58;;;;;;;9.85;3.00;;;16.50;81.80;;;;;;4981951;28;20627;-71
2023/09/22 10:46:25;;;;;;;6.90;2.67;;;16.60;82.20;;;;;;4976632;28;20097;-69
2023/09/22 10:48:51;;;;;;;7.93;3.17;;;16.60;81.80;;;;;;4982166;28;20036;-72
2023/09/22 10:51:18;;;;;;;5.72;2.78;;;16.50;82.80;;;;;;4978775;28;20114;-70
2023/09/22 10:54:00;;;;;;;7.30;2.45;;;16.40;82.60;;;;;;4978719;28;20052;-74
2023/09/22 10:56:26;;;;;;;9.07;4.10;;;16.50;82.20;;;;;;4988071;28;20622;-73
2023/09/22 10:58:53;;;;;;;9.70;3.00;;;16.40;81.80;;;;;;4980054;28;20508;-69
2023/09/22 11:01:21;;;;;;;8.80;2.78;;;16.40;81.80;;;;;;4978826;28;20043;-73
2023/09/22 11:03:53;;;;;;;6.80;2.70;;;16.40;81.70;;;;;;4987420;28;20514;-75
2023/09/22 11:06:19;;;;;;;8.10;3.28;;;16.50;81.80;;;;;;4980735;28;20038;-70
2023/09/22 11:08:51;;;;;;;6.70;2.42;;;16.50;81.30;;;;;;4981162;28;20092;-70
2023/09/22 11:11:17;;;;;;;5.70;2.40;;;16.50;81.70;;;;;;4979778;28;20076;-75
2023/09/22 11:13:56;;;;;;;6.20;2.33;;;16.60;81.50;;;;;;4982372;28;20033;-73
2023/09/22 11:16:22;;;;;;;5.55;2.83;;;16.80;81.10;;;;;;4979646;28;20034;-71
2023/09/22 11:18:48;;;;;;;3.90;2.45;;;16.90;80.70;;;;;;4981033;28;20050;-71
2023/09/22 11:21:14;;;;;;;4.82;2.70;;;17.10;80.20;;;;;;4983407;28;20081;-74
2023/09/22 11:23:41;;;;;;;4.95;2.90;;;17.20;80.10;;;;;;4979165;28;20029;-73
2023/09/22 11:26:12;;;;;;;4.78;2.30;;;17.30;79.30;;;;;;4978692;28;20038;-73
2023/09/22 11:28:44;;;;;;;4.72;2.17;;;17.30;80.10;;;;;;4981176;28;20420;-72
2023/09/22 11:31:13;;;;;;;6.47;2.47;;;17.40;78.80;;;;;;4983072;28;20499;-72
2023/09/22 11:33:39;;;;;;;4.10;1.73;;;17.50;78.30;;;;;;4995335;28;20036;-70
2023/09/22 11:36:07;;;;;;;4.05;2.08;;;17.40;77.80;;;;;;4992830;28;20088;-67
2023/09/22 11:38:34;;;;;;;5.70;2.63;;;17.40;78.50;;;;;;5001062;28;20467;-71
2023/09/22 11:41:04;;;;;;;6.72;2.22;;;17.60;78.50;;;;;;4995891;28;20133;-69
2023/09/22 11:43:30;;;;;;;6.03;2.70;;;17.70;77.70;;;;;;5001037;28;20054;-69
2023/09/22 11:46:26;;;;;;;5.68;2.72;;;17.70;78.00;;;;;;4995275;28;20026;-71
2023/09/22 11:48:59;;;;;;;5.22;2.30;;;17.80;78.40;;;;;;4998564;28;20048;-70
2023/09/22 11:51:43;;;;;;;6.30;2.20;;;18.00;78.90;;;;;;4988263;28;20034;-73
2023/09/22 11:54:10;;;;;;;6.90;2.17;;;18.00;77.70;;;;;;4990019;28;20285;-71
2023/09/22 11:56:36;;;;;;;2.78;1.88;;;18.10;77.60;;;;;;4997119;28;20125;-70
2023/09/22 11:59:17;;;;;;;5.82;1.98;;;18.10;76.70;;;;;;4993364;28;20058;-72
2023/09/22 12:01:45;;;;;;;4.32;2.10;;;18.10;76.20;;;;;;5004242;28;20056;-71
2023/09/22 12:04:11;;;;;;;4.72;2.03;;;17.90;76.80;;;;;;5002747;28;20057;-69
2023/09/22 12:06:40;;;;;;;5.25;1.88;;;17.60;77.00;;;;;;5004730;28;20038;-69
2023/09/22 12:09:07;;;;;;;5.38;1.92;;;17.60;78.70;;;;;;5002308;28;20505;-69
2023/09/22 12:11:32;;;;;;;4.35;1.98;;;17.50;79.70;;;;;;5003587;28;20121;-70
2023/09/22 12:14:00;;;;;;;5.53;2.13;;;17.50;80.80;;;;;;5003084;28;20212;-73
2023/09/22 12:16:26;;;;;;;4.00;2.20;;;17.40;81.30;;;;;;5002501;28;20037;-70
2023/09/22 12:18:52;;;;;;;4.72;1.90;;;17.40;81.50;;;;;;4999460;28;20042;-69
2023/09/22 12:21:18;;;;;;;4.55;1.90;;;17.30;81.00;;;;;;5017088;28;20033;-69
2023/09/22 12:23:44;;;;;;;4.15;2.00;;;17.10;81.70;;;;;;5010389;28;20537;-72
2023/09/22 12:26:10;;;;;;;3.97;2.00;;;17.10;82.00;;;;;;5015341;28;20037;-69
2023/09/22 12:28:37;;;;;;;8.32;3.63;;;16.80;82.70;;;;;;5020440;28;20041;-69
2023/09/22 12:31:03;;;;;;;5.88;2.25;;;16.60;83.30;;;;;;5019237;28;20041;-73
2023/09/22 12:33:30;;;;;;;4.57;2.30;;;16.60;84.00;;;;;;5013967;28;20026;-69
2023/09/22 12:35:56;;;;;;;5.55;2.38;;;16.50;84.40;;;;;;5015349;28;20057;-70
2023/09/22 12:38:25;;;;;;;4.07;2.20;;;16.40;84.90;;;;;;5018339;28;22331;-71
2023/09/22 12:40:51;;;;;;;5.13;2.20;;;16.30;85.10;;;;;;5018462;28;20034;-70
2023/09/22 12:43:17;;;;;;;5.00;2.42;;;16.20;85.50;;;;;;5016864;28;20540;-70
2023/09/22 12:45:44;;;;;;;4.30;2.17;;;16.10;85.70;;;;;;5018186;28;20488;-76
2023/09/22 12:48:10;;;;;;;5.22;2.20;;;16.10;86.50;;;;;;5020243;28;20106;-75
2023/09/22 12:50:37;;;;;;;5.25;2.50;;;16.10;86.70;;;;;;5020573;28;20068;-70
2023/09/22 12:53:03;;;;;;;8.13;2.75;;;16.10;87.10;;;;;;5017425;28;20025;-69
2023/09/22 12:55:30;;;;;;;5.75;2.58;;;16.00;87.30;;;;;;5020933;28;20037;-69
2023/09/22 12:57:56;;;;;;;5.97;2.60;;;15.90;87.40;;;;;;5016711;28;20028;-71
2023/09/22 13:00:22;;;;;;;4.45;2.42;;;15.90;87.50;;;;;;5017241;28;20057;-69
2023/09/22 13:02:48;;;;;;;6.80;2.70;;;15.90;87.20;;;;;;5014330;28;20035;-69
2023/09/22 13:05:15;;;;;;;5.70;2.63;;;15.90;87.40;;;;;;5018693;28;20033;-72
2023/09/22 13:07:41;;;;;;;9.82;5.53;;;15.90;87.40;;;;;;5014761;28;20048;-69
2023/09/22 13:10:11;;;;;;;15.68;10.98;;;15.90;87.70;;;;;;5020409;28;20046;-69
2023/09/22 13:12:39;;;;;;;7.70;3.97;;;16.00;88.00;;;;;;5019681;28;20029;-71
2023/09/22 13:15:06;;;;;;;7.22;3.25;;;15.80;87.60;;;;;;5013418;28;20173;-72